Time;durP1;ratioP1;P1;durP2;ratioP2;P2;SDS_P1;SDS_P2;PMS_P1;PMS_P2;Temp;Humidity;BMP_temperature;BMP_pressure;BME280_temperature;BME280_humidity;BME280_pressure;Samples;Min_cycle;Max_cycle;Signal;HPM_P1;HPM_P2
2021/05/11 00:00:59;;;;;;;5.50;4.32;;;17.70;96.80;;;18.84;100.00;99477.38;4927648;28;91452;-61
2021/05/11 00:04:35;;;;;;;5.65;4.40;;;17.60;96.90;;;18.67;100.00;99477.19;4932042;28;88569;-62
2021/05/11 00:23:34;;;;;;;11.23;4.13;;;17.30;98.60;;;18.90;100.00;99452.91;4927679;28;94537;-62
2021/05/11 00:26:45;;;;;;;6.57;3.95;;;17.20;98.80;;;18.81;100.00;99443.44;4852036;28;97457;-62
2021/05/11 00:29:56;;;;;;;6.32;3.83;;;17.20;99.40;;;18.98;100.00;99444.41;4920761;28;99550;-62
2021/05/11 00:33:07;;;;;;;5.88;4.22;;;17.10;99.60;;;18.95;100.00;99446.75;4921130;28;98436;-62
2021/05/11 00:36:20;;;;;;;5.18;3.55;;;17.10;99.70;;;18.94;100.00;99440.50;4945130;28;90761;-62
2021/05/11 00:39:32;;;;;;;7.00;3.88;;;17.10;99.90;;;18.86;100.00;99431.91;4958878;28;81369;-62
2021/05/11 00:42:43;;;;;;;5.68;3.80;;;17.10;99.90;;;18.84;100.00;99425.88;4953062;28;79662;-62
2021/05/11 00:46:00;;;;;;;8.48;4.22;;;17.00;99.90;;;18.77;100.00;99423.28;4959158;28;70702;-62
2021/05/11 00:49:11;;;;;;;4.60;4.18;;;17.00;99.90;;;18.61;100.00;99413.09;4962353;28;60050;-62
2021/05/11 00:52:25;;;;;;;7.10;3.60;;;17.00;99.90;;;18.53;100.00;99405.28;4962256;28;50193;-62
2021/05/11 00:55:37;;;;;;;5.05;4.50;;;16.90;99.90;;;18.48;100.00;99392.41;4966072;28;48762;-62
2021/05/11 00:58:48;;;;;;;6.53;4.32;;;16.90;99.90;;;18.25;100.00;99387.75;4965195;28;48645;-62
2021/05/11 01:01:59;;;;;;;4.72;4.20;;;16.80;99.90;;;18.37;100.00;99384.25;4967468;28;43292;-62
2021/05/11 01:05:11;;;;;;;7.93;4.43;;;16.70;99.90;;;18.24;100.00;99372.56;4944574;28;54940;-62
2021/05/11 01:08:24;;;;;;;5.82;4.82;;;16.70;99.90;;;18.33;100.00;99366.81;4938113;28;53438;-62
2021/05/11 01:11:35;;;;;;;4.65;4.20;;;16.60;99.90;;;18.29;100.00;99367.28;4940347;28;53931;-62
2021/05/11 01:14:46;;;;;;;7.68;4.35;;;16.60;99.90;;;18.26;100.00;99356.91;4937037;28;63296;-62
2021/05/11 01:18:00;;;;;;;6.85;4.13;;;16.50;99.90;;;18.28;100.00;99354.81;4936657;28;53215;-62
2021/05/11 01:21:23;;;;;;;6.20;3.78;;;16.50;99.90;;;18.41;100.00;99358.38;4938253;28;58567;-62
2021/05/11 01:24:37;;;;;;;4.65;3.85;;;16.40;99.90;;;18.33;100.00;99340.56;4934309;28;60590;-60
2021/05/11 02:24:45;;;;;;;4.88;4.15;;;15.70;99.90;;;17.42;100.00;99330.72;4912957;28;89410;-62
2021/05/11 02:27:56;;;;;;;5.68;4.50;;;15.70;99.90;;;17.25;100.00;99335.06;4960611;28;93213;-62
2021/05/11 02:31:09;;;;;;;5.07;4.57;;;15.60;99.90;;;16.87;100.00;99332.50;4962786;28;84578;-62
2021/05/11 02:34:20;;;;;;;5.18;4.63;;;15.60;99.90;;;16.81;100.00;99331.50;4944565;28;92967;-62
2021/05/11 02:37:31;;;;;;;5.43;4.80;;;15.50;99.90;;;16.79;100.00;99332.81;4933840;28;98742;-62
2021/05/11 02:44:43;;;;;;;6.78;4.47;;;15.40;99.90;;;16.63;100.00;99334.19;4858805;28;98781;-61
2021/05/11 02:48:07;;;;;;;5.35;4.72;;;15.30;99.90;;;16.48;100.00;99334.47;4881833;28;99959;-61
2021/05/11 02:51:18;;;;;;;4.30;3.90;;;15.30;99.90;;;16.39;100.00;99332.25;4935847;28;99891;-61
2021/05/11 02:54:30;;;;;;;5.18;4.68;;;15.20;99.90;;;16.40;100.00;99321.25;4931529;28;99863;-62
2021/05/11 02:57:41;;;;;;;7.18;4.88;;;15.20;99.90;;;16.19;100.00;99313.50;4927939;28;100100;-62
2021/05/11 03:00:54;;;;;;;12.57;5.33;;;15.10;99.90;;;16.17;100.00;99318.28;4932111;28;99586;-62
2021/05/11 03:04:06;;;;;;;5.17;4.67;;;15.10;99.90;;;16.10;100.00;99314.78;4933455;28;99425;-61
2021/05/11 03:07:17;;;;;;;5.23;4.40;;;15.00;99.90;;;16.11;100.00;99309.19;4931091;28;99322;-60
2021/05/11 03:10:41;;;;;;;4.03;3.72;;;14.90;99.90;;;16.14;100.00;99314.16;4930850;28;99828;-61
2021/05/11 03:13:52;;;;;;;7.10;4.67;;;14.90;99.90;;;16.27;100.00;99312.41;4934296;28;100815;-61
2021/05/11 03:17:03;;;;;;;6.03;4.88;;;14.90;99.90;;;16.05;100.00;99325.44;4934364;28;99774;-62
2021/05/11 03:20:16;;;;;;;6.70;5.93;;;14.80;99.90;;;15.65;100.00;99327.50;4929011;28;99920;-62
2021/05/11 03:23:27;;;;;;;6.47;5.90;;;14.70;99.90;;;15.62;100.00;99328.75;4926502;28;101469;-61
2021/05/11 03:26:38;;;;;;;8.50;5.67;;;14.60;99.90;;;15.52;100.00;99335.59;4925269;28;100327;-61
2021/05/11 03:29:49;;;;;;;7.63;5.93;;;14.50;99.90;;;15.47;100.00;99333.53;4906888;28;99837;-60
2021/05/11 03:33:01;;;;;;;9.47;6.20;;;14.40;99.90;;;15.45;100.00;99341.84;4907634;28;99835;-61
2021/05/11 03:36:13;;;;;;;8.50;5.90;;;14.30;99.90;;;15.40;100.00;99346.22;4906159;28;100166;-61
2021/05/11 03:39:38;;;;;;;9.57;6.27;;;14.30;99.90;;;15.39;100.00;99339.16;4906129;28;100489;-60
2021/05/11 03:42:52;;;;;;;7.67;5.97;;;14.20;99.90;;;15.59;100.00;99347.22;4907089;28;100102;-62
2021/05/11 03:46:10;;;;;;;7.93;6.43;;;14.20;99.90;;;15.95;100.00;99342.06;4920712;28;100055;-61
2021/05/11 03:52:56;;;;;;;6.57;5.47;;;14.20;99.90;;;15.68;100.00;99330.59;4905720;28;100290;-62
2021/05/11 03:56:38;;;;;;;9.93;6.23;;;14.20;99.90;;;15.82;100.00;99325.97;4906381;28;99828;-60
2021/05/11 03:59:54;;;;;;;8.63;6.50;;;14.20;99.90;;;15.99;100.00;99320.88;4844951;28;100670;-61
2021/05/11 04:03:07;;;;;;;8.87;6.00;;;14.20;99.90;;;16.06;100.00;99319.00;4847508;28;100172;-60
2021/05/11 04:06:18;;;;;;;12.30;6.40;;;14.30;99.90;;;16.04;100.00;99321.91;4907170;28;99826;-60
2021/05/11 04:09:34;;;;;;;11.70;6.53;;;14.30;99.90;;;15.90;100.00;99314.09;4907933;28;99878;-61
2021/05/11 04:19:36;;;;;;;9.03;6.00;;;14.40;99.90;;;16.26;100.00;99316.97;4893804;28;100794;-62
2021/05/11 04:22:47;;;;;;;7.70;5.80;;;14.50;99.90;;;16.47;100.00;99319.31;4907067;28;99875;-62
2021/05/11 04:29:31;;;;;;;7.57;6.17;;;14.60;99.90;;;16.97;100.00;99303.09;4922416;28;100298;-61
2021/05/11 04:32:42;;;;;;;8.60;5.20;;;14.80;99.90;;;16.87;100.00;99311.72;4924365;28;99602;-61
2021/05/11 04:35:53;;;;;;;7.72;5.97;;;15.00;99.90;;;16.84;100.00;99312.16;4919593;28;100196;-61
2021/05/11 04:39:16;;;;;;;7.20;5.53;;;15.20;99.90;;;16.96;100.00;99306.03;4890973;28;100004;-62
2021/05/11 04:42:28;;;;;;;7.77;5.10;;;15.30;99.90;;;17.00;100.00;99302.66;4923457;28;100295;-62
2021/05/11 04:45:40;;;;;;;7.32;5.57;;;15.40;99.90;;;17.48;100.00;99293.81;4922313;28;100267;-61
2021/05/11 04:48:51;;;;;;;10.73;5.13;;;15.50;99.90;;;18.26;100.00;99302.75;4926943;28;99605;-61
2021/05/11 04:52:14;;;;;;;7.85;5.22;;;15.70;99.90;;;18.51;100.00;99301.75;4930146;28;97932;-61
2021/05/11 04:58:53;;;;;;;7.28;4.80;;;16.20;99.90;;;18.89;100.00;99291.31;4885886;28;95884;-61
2021/05/11 05:02:05;;;;;;;6.07;4.57;;;16.50;99.90;;;19.01;100.00;99292.13;4962922;28;77768;-62
2021/05/11 05:05:32;;;;;;;6.50;4.88;;;16.80;99.90;;;18.77;100.00;99295.09;4949349;28;88017;-61
2021/05/11 05:08:44;;;;;;;8.00;5.10;;;17.10;99.90;;;19.11;100.00;99293.41;4936168;28;96266;-62
2021/05/11 05:11:55;;;;;;;6.60;4.78;;;17.30;99.90;;;19.32;100.00;99287.38;4932681;28;98656;-61
2021/05/11 05:15:07;;;;;;;7.25;4.32;;;17.50;99.90;;;19.61;100.00;99291.81;4930951;28;98259;-61
2021/05/11 05:18:18;;;;;;;5.50;4.53;;;17.80;99.90;;;19.55;100.00;99292.75;4922740;28;99893;-61
2021/05/11 05:21:42;;;;;;;5.45;4.07;;;18.10;99.90;;;19.84;100.00;99284.66;4920835;28;99859;-62
2021/05/11 05:24:55;;;;;;;4.50;4.03;;;18.30;99.90;;;20.06;100.00;99281.00;4918731;28;99950;-62
2021/05/11 05:31:52;;;;;;;5.47;3.67;;;18.90;99.90;;;20.65;100.00;99267.06;4932887;28;98643;-61
2021/05/11 05:35:03;;;;;;;8.70;4.05;;;19.30;99.90;;;20.56;100.00;99266.66;4939587;28;96679;-61
2021/05/11 05:38:21;;;;;;;4.93;3.92;;;19.50;99.90;;;21.00;100.00;99270.34;4930074;28;99050;-61
2021/05/11 05:41:33;;;;;;;4.63;3.58;;;19.80;99.90;;;21.11;100.00;99266.69;4912532;28;99333;-62
2021/05/11 05:44:45;;;;;;;8.05;3.88;;;20.00;99.20;;;21.91;100.00;99267.09;4927073;28;93727;-61
2021/05/11 05:51:24;;;;;;;5.32;3.20;;;20.50;97.50;;;22.35;100.00;99265.13;4927477;28;95792;-62
2021/05/11 05:54:46;;;;;;;16.83;15.35;;;20.90;96.40;;;22.65;100.00;99262.63;4942959;28;94180;-62
2021/05/11 05:57:58;;;;;;;10.80;2.95;;;21.20;95.30;;;22.08;100.00;99263.25;4917429;28;96901;-62
2021/05/11 06:01:10;;;;;;;5.05;3.00;;;21.40;90.20;;;22.41;100.00;99264.06;4934237;28;95804;-62
2021/05/11 06:04:30;;;;;;;5.85;3.22;;;21.50;90.20;;;22.64;100.00;99250.06;4933265;28;97622;-62
2021/05/11 06:07:42;;;;;;;4.10;2.75;;;21.60;88.70;;;22.91;100.00;99250.00;4919392;28;99292;-60
2021/05/11 06:10:57;;;;;;;9.00;2.97;;;21.80;84.60;;;23.15;100.00;99253.16;4936139;28;98987;-62
2021/05/11 06:14:26;;;;;;;4.80;2.50;;;22.00;83.70;;;23.44;100.00;99251.66;4928020;28;97135;-61
2021/05/11 06:17:37;;;;;;;4.55;2.60;;;22.30;82.10;;;23.37;100.00;99259.25;4916495;28;94229;-60
2021/05/11 06:20:50;;;;;;;5.20;2.70;;;22.60;79.20;;;23.38;100.00;99249.97;4949809;28;92921;-61
2021/05/11 06:24:01;;;;;;;4.78;2.78;;;22.70;76.10;;;23.83;100.00;99243.88;4934186;28;91048;-62
2021/05/11 06:27:25;;;;;;;3.05;2.50;;;22.90;76.10;;;23.78;100.00;99243.03;4932783;28;99397;-61
2021/05/11 06:30:37;;;;;;;5.20;2.67;;;23.10;73.80;;;24.17;100.00;99244.22;4929064;28;97312;-60
2021/05/11 06:34:03;;;;;;;3.35;2.60;;;23.30;72.50;;;23.54;100.00;99246.25;4926334;28;95659;-62
2021/05/11 06:37:26;;;;;;;3.25;2.55;;;23.60;66.60;;;24.24;100.00;99242.03;4938577;28;86421;-62
2021/05/11 06:40:39;;;;;;;4.13;2.70;;;23.60;65.90;;;24.18;100.00;99229.44;4899173;28;92774;-63
2021/05/11 06:43:55;;;;;;;3.60;2.80;;;23.70;65.40;;;24.48;100.00;99236.84;4929861;28;94225;-62
2021/05/11 06:54:00;;;;;;;4.82;2.47;;;24.30;63.70;;;24.30;100.00;99234.69;4863132;28;90349;-61
2021/05/11 06:57:11;;;;;;;2.90;2.08;;;24.40;60.90;;;24.63;100.00;99225.09;4931583;28;85816;-62
2021/05/11 07:00:23;;;;;;;4.70;2.55;;;24.50;58.70;;;24.62;100.00;99221.53;4935693;28;89109;-62
2021/05/11 07:03:34;;;;;;;3.88;2.30;;;24.50;58.40;;;24.74;100.00;99226.69;4928758;28;89847;-62
2021/05/11 07:10:16;;;;;;;4.35;2.58;;;24.80;58.20;;;24.43;100.00;99216.91;4935729;28;85949;-62
2021/05/11 07:13:39;;;;;;;4.65;2.30;;;24.90;56.40;;;24.74;100.00;99237.66;4928240;28;96033;-62
2021/05/11 07:16:51;;;;;;;6.05;2.55;;;24.90;56.60;;;24.61;100.00;99243.69;4947589;28;81560;-62
2021/05/11 07:20:29;;;;;;;3.97;2.42;;;25.00;56.40;;;25.00;100.00;99241.19;4947893;28;76688;-62
2021/05/11 07:30:53;;;;;;;7.47;2.90;;;25.60;56.10;;;25.09;100.00;99250.47;4922921;28;81543;-63
2021/05/11 07:34:06;;;;;;;4.40;2.38;;;25.80;54.30;;;25.04;100.00;99248.56;4914286;28;95776;-62
2021/05/11 07:37:17;;;;;;;5.78;2.40;;;25.80;53.90;;;26.02;100.00;99244.31;4920070;28;91936;-61
2021/05/11 07:40:29;;;;;;;4.50;2.28;;;25.90;54.20;;;25.80;100.00;99243.91;4939719;28;97241;-62
2021/05/11 07:43:43;;;;;;;5.60;2.40;;;26.00;53.50;;;25.72;100.00;99251.59;4935794;28;78833;-62
2021/05/11 07:46:59;;;;;;;4.93;2.20;;;26.10;51.80;;;25.98;100.00;99248.72;4933708;28;85786;-61
2021/05/11 08:18:35;;;;;;;6.60;2.10;;;27.50;48.50;;;26.74;100.00;99226.19;4871611;28;55824;-63
2021/05/11 08:32:24;;;;;;;6.55;2.30;;;28.20;45.80;;;28.13;100.00;99214.81;4962588;28;65733;-62
2021/05/11 08:36:00;;;;;;;3.90;2.30;;;28.30;46.00;;;27.59;100.00;99223.59;4928160;28;98894;-63
2021/05/11 08:39:11;;;;;;;4.15;1.90;;;28.60;45.70;;;27.86;100.00;99220.19;4940212;28;93311;-62
2021/05/11 08:42:22;;;;;;;3.67;1.85;;;28.80;45.20;;;26.44;100.00;99208.91;4937293;28;83972;-61
2021/05/11 08:45:42;;;;;;;4.15;2.33;;;28.90;43.80;;;26.78;100.00;99216.25;4955278;28;78470;-61
2021/05/11 08:49:13;;;;;;;6.28;2.17;;;28.80;43.50;;;28.37;100.00;99214.75;4965921;28;79786;-61
2021/05/11 09:26:50;;;;;;;4.30;2.35;;;29.90;42.20;;;30.56;100.00;99180.63;4986377;28;45369;-61
2021/05/11 09:57:40;;;;;;;5.75;2.50;;;31.30;39.00;;;30.06;100.00;99158.69;4882455;28;49131;-61
2021/05/11 10:47:41;;;;;;;4.40;2.72;;;34.30;38.90;;;31.34;100.00;99124.53;4991902;28;48478;-63
2021/05/11 10:51:25;;;;;;;4.38;2.80;;;34.50;38.60;;;31.23;100.00;99130.72;4989171;28;52505;-63
2021/05/11 10:54:57;;;;;;;7.28;2.28;;;34.80;38.20;;;30.73;100.00;99132.97;4981126;28;40111;-62
2021/05/11 10:58:09;;;;;;;4.10;2.45;;;35.30;35.30;;;30.21;100.00;99129.91;4989671;28;38731;-61
2021/05/11 11:01:25;;;;;;;6.57;3.03;;;35.20;34.00;;;30.23;100.00;99124.88;4984035;28;50647;-62
2021/05/11 11:04:53;;;;;;;4.57;2.65;;;35.20;36.00;;;30.63;100.00;99136.81;4992848;28;51690;-61
2021/05/11 11:08:13;;;;;;;4.65;2.80;;;35.10;36.70;;;30.88;100.00;99129.78;4985214;28;45434;-63
2021/05/11 11:11:32;;;;;;;5.88;2.72;;;35.10;37.20;;;31.25;100.00;99118.19;4982838;28;62826;-62
2021/05/11 11:18:28;;;;;;;5.68;2.15;;;35.50;37.00;;;30.60;100.00;99109.84;4956339;28;93105;-64
2021/05/11 11:28:50;;;;;;;4.88;3.00;;;35.40;36.70;;;29.46;100.00;99094.75;4941857;28;91318;-63
2021/05/11 11:32:14;;;;;;;5.93;2.80;;;35.60;36.00;;;32.06;100.00;99079.63;4967774;28;80362;-64
2021/05/11 11:39:04;;;;;;;3.45;2.67;;;35.90;36.10;;;31.10;100.00;99082.75;4981164;28;45416;-62
2021/05/11 11:42:25;;;;;;;3.55;2.72;;;36.00;36.10;;;32.43;100.00;99071.75;4984880;28;43123;-63
2021/05/11 11:45:47;;;;;;;5.75;2.58;;;36.30;35.90;;;32.64;100.00;99074.59;4992535;28;38608;-63
2021/05/11 11:49:08;;;;;;;5.05;2.97;;;36.70;35.50;;;31.85;100.00;99055.78;4999650;28;45134;-64
2021/05/11 11:52:46;;;;;;;4.22;2.42;;;37.10;34.50;;;32.75;100.00;99054.53;4972886;28;37648;-62
2021/05/11 11:59:28;;;;;;;4.90;2.60;;;37.70;34.20;;;32.94;100.00;99050.50;4997928;28;32754;-63
2021/05/11 12:02:42;;;;;;;7.55;2.42;;;38.00;33.20;;;33.47;100.00;99056.16;4995270;28;26173;-63
2021/05/11 12:09:31;;;;;;;3.85;2.20;;;38.70;31.80;;;33.42;100.00;99064.69;4997380;28;53183;-63
2021/05/11 12:12:42;;;;;;;4.97;2.47;;;39.00;31.50;;;32.42;100.00;99054.31;4987382;28;45878;-63
2021/05/11 12:15:53;;;;;;;4.22;2.20;;;39.30;30.70;;;31.62;100.00;99063.41;4985855;28;44254;-63
2021/05/11 12:23:14;;;;;;;5.30;2.13;;;39.00;28.80;;;31.19;100.00;99053.16;4955841;28;46291;-63
2021/05/11 12:26:29;;;;;;;7.70;2.65;;;38.00;29.00;;;31.80;100.00;99050.41;4980914;28;58127;-63
2021/05/11 12:29:58;;;;;;;5.97;2.83;;;37.60;29.70;;;30.74;100.00;99049.81;4984530;28;42748;-62
2021/05/11 12:37:04;;;;;;;5.70;2.58;;;36.70;30.00;;;31.89;100.00;99027.13;4986928;28;43261;-62
2021/05/11 12:40:25;;;;;;;5.28;1.83;;;36.30;30.90;;;31.83;100.00;99025.66;4984162;28;40572;-63
2021/05/11 12:47:57;;;;;;;4.03;1.85;;;36.10;31.00;;;30.72;100.00;99027.22;4910050;28;43876;-61
2021/05/11 12:51:09;;;;;;;5.68;2.42;;;35.90;31.20;;;30.90;100.00;99031.66;4978901;28;42899;-61
2021/05/11 12:54:46;;;;;;;6.57;2.45;;;35.80;31.40;;;32.58;100.00;99020.53;4984110;28;46486;-61
2021/05/11 13:32:58;;;;;;;5.03;2.33;;;34.50;32.80;;;31.35;100.00;99007.34;4980526;28;48394;-63
2021/05/11 13:36:16;;;;;;;4.32;2.10;;;34.30;33.50;;;31.08;100.00;99013.13;4978828;28;40905;-62
2021/05/11 13:39:27;;;;;;;5.55;2.03;;;34.30;32.60;;;31.34;100.00;98996.59;4985783;28;42438;-62
2021/05/11 13:42:53;;;;;;;5.78;2.35;;;34.20;32.70;;;30.97;100.00;98986.97;4982568;28;41591;-62
2021/05/11 13:46:04;;;;;;;4.03;2.10;;;34.30;33.00;;;31.78;100.00;98985.16;4981715;28;54311;-63
2021/05/11 13:49:18;;;;;;;5.60;2.05;;;34.40;34.00;;;31.27;100.00;98979.72;4985340;28;44896;-62
2021/05/11 13:52:31;;;;;;;3.25;1.65;;;34.40;32.60;;;31.21;100.00;98972.72;4986612;28;43912;-62
2021/05/11 13:55:51;;;;;;;4.15;2.25;;;34.30;32.50;;;31.69;100.00;98975.25;4976656;28;30151;-62
2021/05/11 14:13:12;;;;;;;3.55;2.05;;;33.70;32.40;;;31.00;94.62;98956.75;4989824;28;40562;-62
2021/05/11 14:16:47;;;;;;;4.32;2.08;;;33.70;31.60;;;31.37;87.23;98960.84;4992208;28;43665;-62
2021/05/11 14:20:04;;;;;;;6.53;2.00;;;33.40;31.60;;;31.12;88.28;98958.91;5005238;28;27128;-62
2021/05/11 14:23:17;;;;;;;4.05;1.95;;;33.20;31.80;;;31.49;90.40;98962.13;4984379;28;30266;-63
2021/05/11 14:26:48;;;;;;;4.82;1.60;;;33.10;32.10;;;31.15;90.42;98954.69;5000342;28;25533;-63
2021/05/11 14:29:59;;;;;;;3.22;1.77;;;32.90;31.90;;;31.45;89.31;98952.84;4995188;28;29047;-62
2021/05/11 14:33:10;;;;;;;3.85;2.17;;;32.80;32.50;;;31.10;85.82;98947.34;4997033;28;26442;-62
2021/05/11 14:36:23;;;;;;;4.93;1.90;;;32.80;32.20;;;30.77;80.02;98948.94;4992487;28;34937;-62
2021/05/11 14:39:35;;;;;;;3.40;2.15;;;32.70;30.50;;;31.11;79.41;98937.94;4995238;28;35535;-61
2021/05/11 14:42:57;;;;;;;6.93;2.30;;;32.50;31.20;;;31.35;60.30;98946.53;4983606;28;35444;-62
2021/05/11 14:46:09;;;;;;;4.00;1.90;;;32.40;30.00;;;31.29;63.86;98947.00;4993781;28;38805;-61
2021/05/11 14:49:40;;;;;;;4.00;1.58;;;32.40;29.70;;;32.07;66.08;98929.09;4994199;28;35097;-61
2021/05/11 14:52:55;;;;;;;7.32;1.70;;;32.30;30.80;;;32.00;64.50;98933.53;4988207;28;43584;-61
2021/05/11 14:56:25;;;;;;;4.45;1.92;;;32.40;30.10;;;31.25;69.30;98943.28;4991762;28;33533;-61
2021/05/11 14:59:36;;;;;;;2.90;1.65;;;32.40;30.10;;;31.73;72.16;98941.09;4997253;28;27444;-62
2021/05/11 15:02:47;;;;;;;6.45;2.10;;;32.20;31.00;;;31.84;70.99;98946.28;4989049;28;41393;-62
2021/05/11 15:05:59;;;;;;;5.45;2.20;;;32.10;30.90;;;31.63;70.89;98927.59;4990073;28;36749;-62
2021/05/11 15:09:12;;;;;;;3.58;1.75;;;32.00;31.00;;;31.63;70.90;98932.31;4988697;28;45237;-63
2021/05/11 15:12:24;;;;;;;5.82;2.13;;;31.90;31.30;;;31.01;70.02;98929.94;4986092;28;43071;-61
2021/05/11 15:15:38;;;;;;;5.20;1.92;;;31.80;31.00;;;31.55;80.07;98930.38;4994230;28;39205;-63
2021/05/11 15:18:50;;;;;;;5.05;1.55;;;31.70;31.50;;;31.51;73.38;98934.97;4996060;28;40441;-62
2021/05/11 15:22:07;;;;;;;4.65;1.85;;;31.60;31.70;;;31.77;75.71;98925.47;4998851;28;29114;-62
2021/05/11 15:25:19;;;;;;;3.90;1.95;;;31.50;32.20;;;31.55;72.85;98931.19;4997552;28;39781;-62
2021/05/11 15:28:33;;;;;;;7.65;2.50;;;31.40;31.80;;;31.40;71.14;98927.00;5000056;28;28439;-62
2021/05/11 15:32:01;;;;;;;4.07;1.95;;;31.40;32.00;;;31.54;72.24;98912.97;4984381;28;38350;-62
2021/05/11 15:35:19;;;;;;;3.47;1.83;;;31.30;32.40;;;31.25;74.02;98913.72;4999688;28;43947;-63
2021/05/11 15:50:19;;;;;;;5.07;2.08;;;30.90;32.50;;;31.49;77.83;98904.88;4856470;28;30420;-62
2021/05/11 15:53:38;;;;;;;3.58;1.90;;;30.90;33.00;;;31.20;75.04;98897.28;4898517;28;27322;-62
2021/05/11 15:56:49;;;;;;;4.00;1.60;;;30.80;32.70;;;31.59;74.44;98889.88;4936324;28;32644;-62
2021/05/11 16:00:00;;;;;;;7.70;1.88;;;30.80;33.00;;;31.31;74.26;98903.28;4995752;28;38767;-62
2021/05/11 16:03:15;;;;;;;6.13;2.13;;;30.80;32.70;;;31.65;71.24;98886.63;4998677;28;38733;-61
2021/05/11 16:06:34;;;;;;;3.33;2.10;;;30.70;33.10;;;31.10;76.85;98889.34;4989278;28;43568;-63
2021/05/11 16:09:45;;;;;;;4.28;1.83;;;30.70;32.70;;;30.93;81.60;98892.91;4994689;28;33075;-62
2021/05/11 16:16:27;;;;;;;2.83;1.60;;;30.50;33.60;;;30.83;81.33;98886.88;4990012;28;35696;-62
2021/05/11 16:19:38;;;;;;;3.55;1.80;;;30.30;34.00;;;30.53;85.08;98888.66;4996748;28;39340;-63
2021/05/11 21:10:14;;;;;;;12.18;10.88;;;16.90;99.90;;;18.39;100.00;99182.56;4695204;29;100008;-63
2021/05/11 22:25:41;;;;;;;17.85;16.25;;;16.00;99.90;;;17.78;100.00;99240.59;4744358;29;97958;-65
2021/05/11 22:37:18;;;;;;;16.15;14.70;;;16.20;99.90;;;17.99;100.00;99252.78;4821149;28;87971;-65
2021/05/11 23:40:09;;;;;;;19.77;17.92;;;16.30;99.90;;;17.52;100.00;99309.38;4877308;28;54978;-66
